sensor_id;sensor_type;location;lat;lon;timestamp;temperature;humidity
52709;DHT22;38606;52.986;6.980;2022-11-20T00:00:09;-0.30;99.90
52709;DHT22;38606;52.986;6.980;2022-11-20T00:02:35;-0.40;99.90
52709;DHT22;38606;52.986;6.980;2022-11-20T00:05:00;-0.30;99.90
52709;DHT22;38606;52.986;6.980;2022-11-20T00:07:26;-0.30;99.90
52709;DHT22;38606;52.986;6.980;2022-11-20T00:09:52;-0.10;99.90
52709;DHT22;38606;52.986;6.980;2022-11-20T00:12:17;-0.30;99.90
52709;DHT22;38606;52.986;6.980;2022-11-20T00:14:43;-0.10;99.90
52709;DHT22;38606;52.986;6.980;2022-11-20T00:17:09;0.00;99.90
52709;DHT22;38606;52.986;6.980;2022-11-20T00:19:34;-0.10;99.90
52709;DHT22;38606;52.986;6.980;2022-11-20T00:22:00;-0.10;99.90
52709;DHT22;38606;52.986;6.980;2022-11-20T00:24:26;0.00;99.90
52709;DHT22;38606;52.986;6.980;2022-11-20T00:26:51;-0.10;99.90
52709;DHT22;38606;52.986;6.980;2022-11-20T00:29:17;0.00;99.90
52709;DHT22;38606;52.986;6.980;2022-11-20T00:31:43;0.20;99.90
52709;DHT22;38606;52.986;6.980;2022-11-20T00:34:09;0.00;99.90
52709;DHT22;38606;52.986;6.980;2022-11-20T00:36:35;1.30;99.90
52709;DHT22;38606;52.986;6.980;2022-11-20T00:39:01;0.00;99.90
52709;DHT22;38606;52.986;6.980;2022-11-20T00:41:28;0.10;99.90
52709;DHT22;38606;52.986;6.980;2022-11-20T00:43:55;0.20;99.90
52709;DHT22;38606;52.986;6.980;2022-11-20T00:46:24;0.10;99.90
52709;DHT22;38606;52.986;6.980;2022-11-20T00:48:50;0.20;99.90
52709;DHT22;38606;52.986;6.980;2022-11-20T00:51:18;0.10;99.90
52709;DHT22;38606;52.986;6.980;2022-11-20T00:53:45;0.20;99.90
52709;DHT22;38606;52.986;6.980;2022-11-20T00:56:13;0.10;99.90
52709;DHT22;38606;52.986;6.980;2022-11-20T00:58:41;0.20;99.90
52709;DHT22;38606;52.986;6.980;2022-11-20T01:03:39;0.30;99.90
52709;DHT22;38606;52.986;6.980;2022-11-20T01:06:09;0.30;99.90
52709;DHT22;38606;52.986;6.980;2022-11-20T01:08:36;0.40;99.90
52709;DHT22;38606;52.986;6.980;2022-11-20T01:11:04;0.30;99.90
52709;DHT22;38606;52.986;6.980;2022-11-20T01:13:31;0.10;99.90
52709;DHT22;38606;52.986;6.980;2022-11-20T01:16:18;0.60;99.90
52709;DHT22;38606;52.986;6.980;2022-11-20T01:18:46;0.30;99.90
52709;DHT22;38606;52.986;6.980;2022-11-20T01:21:17;0.40;99.90
52709;DHT22;38606;52.986;6.980;2022-11-20T01:23:44;0.50;99.90
52709;DHT22;38606;52.986;6.980;2022-11-20T01:26:13;0.60;99.90
52709;DHT22;38606;52.986;6.980;2022-11-20T01:28:40;0.60;99.90
52709;DHT22;38606;52.986;6.980;2022-11-20T01:31:28;0.50;99.90
52709;DHT22;38606;52.986;6.980;2022-11-20T01:33:55;0.30;99.90
52709;DHT22;38606;52.986;6.980;2022-11-20T01:36:23;0.60;99.90
52709;DHT22;38606;52.986;6.980;2022-11-20T01:38:54;0.50;99.90
52709;DHT22;38606;52.986;6.980;2022-11-20T01:41:21;0.60;99.90
52709;DHT22;38606;52.986;6.980;2022-11-20T01:44:06;0.50;99.90
52709;DHT22;38606;52.986;6.980;2022-11-20T01:46:37;0.60;99.90
52709;DHT22;38606;52.986;6.980;2022-11-20T01:51:44;0.40;99.90
52709;DHT22;38606;52.986;6.980;2022-11-20T01:54:16;0.60;99.90
52709;DHT22;38606;52.986;6.980;2022-11-20T01:56:44;0.60;99.90
52709;DHT22;38606;52.986;6.980;2022-11-20T01:59:14;0.60;99.90
52709;DHT22;38606;52.986;6.980;2022-11-20T02:01:41;0.50;99.90
52709;DHT22;38606;52.986;6.980;2022-11-20T02:04:08;0.90;99.90
52709;DHT22;38606;52.986;6.980;2022-11-20T02:06:46;0.50;99.90
52709;DHT22;38606;52.986;6.980;2022-11-20T02:09:14;0.70;99.90
52709;DHT22;38606;52.986;6.980;2022-11-20T02:11:40;0.70;99.90
52709;DHT22;38606;52.986;6.980;2022-11-20T02:14:06;0.70;99.90
52709;DHT22;38606;52.986;6.980;2022-11-20T02:16:43;0.60;99.90
52709;DHT22;38606;52.986;6.980;2022-11-20T02:22:24;0.50;99.90
52709;DHT22;38606;52.986;6.980;2022-11-20T02:24:51;0.80;99.90
52709;DHT22;38606;52.986;6.980;2022-11-20T02:27:17;0.60;99.90
52709;DHT22;38606;52.986;6.980;2022-11-20T02:29:46;0.90;99.90
52709;DHT22;38606;52.986;6.980;2022-11-20T02:34:51;0.60;99.90
52709;DHT22;38606;52.986;6.980;2022-11-20T02:37:17;0.70;99.90
52709;DHT22;38606;52.986;6.980;2022-11-20T02:39:45;0.70;99.90
52709;DHT22;38606;52.986;6.980;2022-11-20T02:42:11;0.70;99.90
52709;DHT22;38606;52.986;6.980;2022-11-20T02:44:37;0.70;99.90
52709;DHT22;38606;52.986;6.980;2022-11-20T02:47:03;0.80;99.90
52709;DHT22;38606;52.986;6.980;2022-11-20T02:49:28;1.70;99.90
52709;DHT22;38606;52.986;6.980;2022-11-20T02:51:54;0.70;99.90
52709;DHT22;38606;52.986;6.980;2022-11-20T02:54:20;0.80;99.90
52709;DHT22;38606;52.986;6.980;2022-11-20T02:56:46;0.70;99.90
52709;DHT22;38606;52.986;6.980;2022-11-20T02:59:11;0.80;99.90
52709;DHT22;38606;52.986;6.980;2022-11-20T03:01:37;0.80;99.90
52709;DHT22;38606;52.986;6.980;2022-11-20T03:04:03;1.50;99.90
52709;DHT22;38606;52.986;6.980;2022-11-20T03:06:28;0.70;99.90
52709;DHT22;38606;52.986;6.980;2022-11-20T03:08:54;1.10;99.90
52709;DHT22;38606;52.986;6.980;2022-11-20T03:11:20;0.90;99.90
52709;DHT22;38606;52.986;6.980;2022-11-20T03:13:46;1.10;99.90
52709;DHT22;38606;52.986;6.980;2022-11-20T03:16:14;0.80;99.90
52709;DHT22;38606;52.986;6.980;2022-11-20T03:18:41;0.70;99.90
52709;DHT22;38606;52.986;6.980;2022-11-20T03:21:08;0.90;99.90
52709;DHT22;38606;52.986;6.980;2022-11-20T03:23:34;1.10;99.90
52709;DHT22;38606;52.986;6.980;2022-11-20T03:26:18;1.40;99.90
52709;DHT22;38606;52.986;6.980;2022-11-20T03:28:58;1.00;99.90
52709;DHT22;38606;52.986;6.980;2022-11-20T03:31:36;1.00;99.90
52709;DHT22;38606;52.986;6.980;2022-11-20T03:34:02;0.90;99.90
52709;DHT22;38606;52.986;6.980;2022-11-20T03:36:29;1.00;99.90
52709;DHT22;38606;52.986;6.980;2022-11-20T03:38:55;1.10;99.90
52709;DHT22;38606;52.986;6.980;2022-11-20T03:41:24;1.70;99.90
52709;DHT22;38606;52.986;6.980;2022-11-20T03:43:54;1.20;99.90
52709;DHT22;38606;52.986;6.980;2022-11-20T03:46:20;0.90;99.90
52709;DHT22;38606;52.986;6.980;2022-11-20T03:48:47;0.90;99.90
52709;DHT22;38606;52.986;6.980;2022-11-20T03:51:17;1.10;99.90
52709;DHT22;38606;52.986;6.980;2022-11-20T03:53:44;1.10;99.90
52709;DHT22;38606;52.986;6.980;2022-11-20T03:56:11;1.20;99.90
52709;DHT22;38606;52.986;6.980;2022-11-20T03:58:39;0.90;99.90
52709;DHT22;38606;52.986;6.980;2022-11-20T04:01:14;1.10;99.90
52709;DHT22;38606;52.986;6.980;2022-11-20T04:03:42;2.00;99.90
52709;DHT22;38606;52.986;6.980;2022-11-20T04:06:19;-0.30;99.90
52709;DHT22;38606;52.986;6.980;2022-11-20T04:08:46;0.90;99.90
52709;DHT22;38606;52.986;6.980;2022-11-20T04:11:16;2.50;99.90
52709;DHT22;38606;52.986;6.980;2022-11-20T04:13:45;1.10;99.90
52709;DHT22;38606;52.986;6.980;2022-11-20T04:16:11;1.00;99.90
52709;DHT22;38606;52.986;6.980;2022-11-20T04:18:37;1.00;99.90
52709;DHT22;38606;52.986;6.980;2022-11-20T04:21:03;1.30;99.90
52709;DHT22;38606;52.986;6.980;2022-11-20T04:23:29;1.20;99.90
52709;DHT22;38606;52.986;6.980;2022-11-20T04:26:00;1.00;99.90
52709;DHT22;38606;52.986;6.980;2022-11-20T04:28:25;1.00;99.90
52709;DHT22;38606;52.986;6.980;2022-11-20T04:30:51;1.00;99.90
52709;DHT22;38606;52.986;6.980;2022-11-20T04:33:16;1.30;99.90
52709;DHT22;38606;52.986;6.980;2022-11-20T04:35:43;1.30;99.90
52709;DHT22;38606;52.986;6.980;2022-11-20T04:38:09;0.90;99.90
52709;DHT22;38606;52.986;6.980;2022-11-20T04:40:35;1.10;99.90
52709;DHT22;38606;52.986;6.980;2022-11-20T04:43:01;1.20;99.90
52709;DHT22;38606;52.986;6.980;2022-11-20T04:45:26;1.20;99.90
52709;DHT22;38606;52.986;6.980;2022-11-20T04:47:52;1.10;99.90
52709;DHT22;38606;52.986;6.980;2022-11-20T04:50:18;1.30;99.90
52709;DHT22;38606;52.986;6.980;2022-11-20T04:52:44;1.30;99.90
52709;DHT22;38606;52.986;6.980;2022-11-20T04:55:09;1.90;99.90
52709;DHT22;38606;52.986;6.980;2022-11-20T04:57:35;1.00;99.90
52709;DHT22;38606;52.986;6.980;2022-11-20T05:00:00;1.00;99.90
52709;DHT22;38606;52.986;6.980;2022-11-20T05:02:26;2.40;99.90
52709;DHT22;38606;52.986;6.980;2022-11-20T05:04:52;1.20;99.90
52709;DHT22;38606;52.986;6.980;2022-11-20T05:07:17;1.10;99.90
52709;DHT22;38606;52.986;6.980;2022-11-20T05:09:43;1.50;99.90
52709;DHT22;38606;52.986;6.980;2022-11-20T05:12:09;2.40;99.90
52709;DHT22;38606;52.986;6.980;2022-11-20T05:14:35;1.30;99.90
52709;DHT22;38606;52.986;6.980;2022-11-20T05:17:00;1.10;99.90
52709;DHT22;38606;52.986;6.980;2022-11-20T05:19:26;1.60;99.90
52709;DHT22;38606;52.986;6.980;2022-11-20T05:21:52;1.40;99.90
52709;DHT22;38606;52.986;6.980;2022-11-20T05:24:17;1.20;99.90
52709;DHT22;38606;52.986;6.980;2022-11-20T05:26:44;2.40;99.90
52709;DHT22;38606;52.986;6.980;2022-11-20T05:29:11;2.30;99.90
52709;DHT22;38606;52.986;6.980;2022-11-20T05:31:41;1.30;99.90
52709;DHT22;38606;52.986;6.980;2022-11-20T05:34:07;1.10;99.90
52709;DHT22;38606;52.986;6.980;2022-11-20T05:36:33;1.40;99.90
52709;DHT22;38606;52.986;6.980;2022-11-20T05:38:59;1.10;99.90
52709;DHT22;38606;52.986;6.980;2022-11-20T05:41:25;1.10;99.90
52709;DHT22;38606;52.986;6.980;2022-11-20T05:43:51;1.20;99.90
52709;DHT22;38606;52.986;6.980;2022-11-20T05:46:20;1.10;99.90
52709;DHT22;38606;52.986;6.980;2022-11-20T05:48:46;1.70;99.90
52709;DHT22;38606;52.986;6.980;2022-11-20T05:51:15;1.30;99.90
52709;DHT22;38606;52.986;6.980;2022-11-20T05:53:41;1.20;99.90
52709;DHT22;38606;52.986;6.980;2022-11-20T05:56:09;1.10;99.90
52709;DHT22;38606;52.986;6.980;2022-11-20T05:58:35;1.20;99.90
52709;DHT22;38606;52.986;6.980;2022-11-20T06:01:16;1.10;99.90
52709;DHT22;38606;52.986;6.980;2022-11-20T06:03:43;1.20;99.90
52709;DHT22;38606;52.986;6.980;2022-11-20T06:06:11;1.20;99.90
52709;DHT22;38606;52.986;6.980;2022-11-20T06:08:37;1.20;99.90
52709;DHT22;38606;52.986;6.980;2022-11-20T06:11:04;1.20;99.90
52709;DHT22;38606;52.986;6.980;2022-11-20T06:13:30;1.30;99.90
52709;DHT22;38606;52.986;6.980;2022-11-20T06:15:56;1.30;99.90
52709;DHT22;38606;52.986;6.980;2022-11-20T06:18:22;1.30;99.90
52709;DHT22;38606;52.986;6.980;2022-11-20T06:20:47;1.40;99.90
52709;DHT22;38606;52.986;6.980;2022-11-20T06:23:13;1.10;99.90
52709;DHT22;38606;52.986;6.980;2022-11-20T06:25:41;1.40;99.90
52709;DHT22;38606;52.986;6.980;2022-11-20T06:28:07;1.20;99.90
52709;DHT22;38606;52.986;6.980;2022-11-20T06:30:34;1.20;99.90
52709;DHT22;38606;52.986;6.980;2022-11-20T06:33:00;1.40;99.90
52709;DHT22;38606;52.986;6.980;2022-11-20T06:35:26;1.00;99.90
52709;DHT22;38606;52.986;6.980;2022-11-20T06:37:51;1.10;99.90
52709;DHT22;38606;52.986;6.980;2022-11-20T06:40:17;1.30;99.90
52709;DHT22;38606;52.986;6.980;2022-11-20T06:42:43;1.10;99.90
52709;DHT22;38606;52.986;6.980;2022-11-20T06:45:09;1.20;99.90
52709;DHT22;38606;52.986;6.980;2022-11-20T06:47:35;1.30;99.90
52709;DHT22;38606;52.986;6.980;2022-11-20T06:50:00;1.20;99.90
52709;DHT22;38606;52.986;6.980;2022-11-20T06:52:26;1.40;99.90
52709;DHT22;38606;52.986;6.980;2022-11-20T06:54:52;1.10;99.90
52709;DHT22;38606;52.986;6.980;2022-11-20T06:57:17;1.20;99.90
52709;DHT22;38606;52.986;6.980;2022-11-20T06:59:43;1.30;99.90
52709;DHT22;38606;52.986;6.980;2022-11-20T07:02:12;1.20;99.90
52709;DHT22;38606;52.986;6.980;2022-11-20T07:04:38;1.10;99.90
52709;DHT22;38606;52.986;6.980;2022-11-20T07:07:04;1.40;99.90
52709;DHT22;38606;52.986;6.980;2022-11-20T07:09:31;1.10;99.90
52709;DHT22;38606;52.986;6.980;2022-11-20T07:11:57;1.20;99.90
52709;DHT22;38606;52.986;6.980;2022-11-20T07:14:23;1.30;99.90
52709;DHT22;38606;52.986;6.980;2022-11-20T07:16:49;1.20;99.90
52709;DHT22;38606;52.986;6.980;2022-11-20T07:19:15;1.30;99.90
52709;DHT22;38606;52.986;6.980;2022-11-20T07:21:41;1.40;99.90
52709;DHT22;38606;52.986;6.980;2022-11-20T07:24:06;1.30;99.90
52709;DHT22;38606;52.986;6.980;2022-11-20T07:26:32;1.30;99.90
52709;DHT22;38606;52.986;6.980;2022-11-20T07:28:58;1.40;99.90
52709;DHT22;38606;52.986;6.980;2022-11-20T07:31:23;1.60;99.90
52709;DHT22;38606;52.986;6.980;2022-11-20T07:33:49;1.80;99.90
52709;DHT22;38606;52.986;6.980;2022-11-20T07:36:15;1.50;99.90
52709;DHT22;38606;52.986;6.980;2022-11-20T07:38:41;2.10;99.90
52709;DHT22;38606;52.986;6.980;2022-11-20T07:41:06;0.50;99.90
52709;DHT22;38606;52.986;6.980;2022-11-20T07:43:32;1.40;99.90
52709;DHT22;38606;52.986;6.980;2022-11-20T07:45:58;1.50;99.90
52709;DHT22;38606;52.986;6.980;2022-11-20T07:48:24;1.40;99.90
52709;DHT22;38606;52.986;6.980;2022-11-20T07:50:54;1.30;99.90
52709;DHT22;38606;52.986;6.980;2022-11-20T07:53:20;1.50;99.90
52709;DHT22;38606;52.986;6.980;2022-11-20T07:55:47;1.30;99.90
52709;DHT22;38606;52.986;6.980;2022-11-20T07:58:13;1.40;99.90
52709;DHT22;38606;52.986;6.980;2022-11-20T08:00:40;1.60;99.90
52709;DHT22;38606;52.986;6.980;2022-11-20T08:03:06;1.40;99.90
52709;DHT22;38606;52.986;6.980;2022-11-20T08:05:32;1.40;99.90
52709;DHT22;38606;52.986;6.980;2022-11-20T08:07:58;1.40;99.90
52709;DHT22;38606;52.986;6.980;2022-11-20T08:10:24;1.60;99.90
52709;DHT22;38606;52.986;6.980;2022-11-20T08:12:51;2.20;99.90
52709;DHT22;38606;52.986;6.980;2022-11-20T08:15:36;1.50;99.90
52709;DHT22;38606;52.986;6.980;2022-11-20T08:18:12;1.60;99.90
52709;DHT22;38606;52.986;6.980;2022-11-20T08:20:38;1.60;99.90
52709;DHT22;38606;52.986;6.980;2022-11-20T08:23:05;1.60;99.90
52709;DHT22;38606;52.986;6.980;2022-11-20T08:25:33;1.50;99.90
52709;DHT22;38606;52.986;6.980;2022-11-20T08:28:00;1.60;99.90
52709;DHT22;38606;52.986;6.980;2022-11-20T08:30:26;1.80;99.90
52709;DHT22;38606;52.986;6.980;2022-11-20T08:32:52;1.70;99.90
52709;DHT22;38606;52.986;6.980;2022-11-20T08:35:17;1.70;99.90
52709;DHT22;38606;52.986;6.980;2022-11-20T08:37:46;2.30;99.90
52709;DHT22;38606;52.986;6.980;2022-11-20T08:40:12;1.50;99.90
52709;DHT22;38606;52.986;6.980;2022-11-20T08:42:48;1.70;99.90
52709;DHT22;38606;52.986;6.980;2022-11-20T08:45:15;3.00;99.90
52709;DHT22;38606;52.986;6.980;2022-11-20T08:47:42;1.80;99.90
52709;DHT22;38606;52.986;6.980;2022-11-20T08:50:09;1.60;99.90
52709;DHT22;38606;52.986;6.980;2022-11-20T08:52:35;1.60;99.90
52709;DHT22;38606;52.986;6.980;2022-11-20T08:55:00;1.80;99.90
52709;DHT22;38606;52.986;6.980;2022-11-20T08:57:26;1.80;99.90
52709;DHT22;38606;52.986;6.980;2022-11-20T08:59:52;1.90;99.90
52709;DHT22;38606;52.986;6.980;2022-11-20T09:02:17;1.90;99.90
52709;DHT22;38606;52.986;6.980;2022-11-20T09:04:43;1.60;99.90
52709;DHT22;38606;52.986;6.980;2022-11-20T09:07:08;2.20;99.90
52709;DHT22;38606;52.986;6.980;2022-11-20T09:09:34;2.70;99.90
52709;DHT22;38606;52.986;6.980;2022-11-20T09:12:00;1.80;99.90
52709;DHT22;38606;52.986;6.980;2022-11-20T09:14:26;1.90;99.90
52709;DHT22;38606;52.986;6.980;2022-11-20T09:16:57;2.30;99.90
52709;DHT22;38606;52.986;6.980;2022-11-20T09:19:26;3.00;99.90
52709;DHT22;38606;52.986;6.980;2022-11-20T09:21:52;2.10;99.90
52709;DHT22;38606;52.986;6.980;2022-11-20T09:24:18;2.20;99.90
52709;DHT22;38606;52.986;6.980;2022-11-20T09:26:44;1.90;99.90
52709;DHT22;38606;52.986;6.980;2022-11-20T09:29:10;2.10;99.90
52709;DHT22;38606;52.986;6.980;2022-11-20T09:31:36;2.00;99.90
52709;DHT22;38606;52.986;6.980;2022-11-20T09:34:02;1.90;99.90
52709;DHT22;38606;52.986;6.980;2022-11-20T09:36:27;3.00;99.90
52709;DHT22;38606;52.986;6.980;2022-11-20T09:38:53;2.10;99.90
52709;DHT22;38606;52.986;6.980;2022-11-20T09:44:28;2.10;99.90
52709;DHT22;38606;52.986;6.980;2022-11-20T09:47:08;2.20;99.90
52709;DHT22;38606;52.986;6.980;2022-11-20T09:52:53;2.10;99.90
52709;DHT22;38606;52.986;6.980;2022-11-20T09:55:21;2.20;99.90
52709;DHT22;38606;52.986;6.980;2022-11-20T09:57:48;2.90;99.90
52709;DHT22;38606;52.986;6.980;2022-11-20T10:00:16;2.40;99.90
52709;DHT22;38606;52.986;6.980;2022-11-20T10:03:13;2.30;99.90
52709;DHT22;38606;52.986;6.980;2022-11-20T10:06:01;2.40;99.90
52709;DHT22;38606;52.986;6.980;2022-11-20T10:08:41;2.20;99.90
52709;DHT22;38606;52.986;6.980;2022-11-20T10:14:01;3.00;99.90
52709;DHT22;38606;52.986;6.980;2022-11-20T10:16:53;2.40;99.90
52709;DHT22;38606;52.986;6.980;2022-11-20T10:23:13;2.50;99.90
52709;DHT22;38606;52.986;6.980;2022-11-20T10:25:52;2.60;99.90
52709;DHT22;38606;52.986;6.980;2022-11-20T10:31:28;2.70;99.90
52709;DHT22;38606;52.986;6.980;2022-11-20T10:33:57;2.70;99.90
52709;DHT22;38606;52.986;6.980;2022-11-20T10:36:32;2.90;99.90
52709;DHT22;38606;52.986;6.980;2022-11-20T10:39:14;2.90;99.90
52709;DHT22;38606;52.986;6.980;2022-11-20T10:41:42;2.80;99.90
52709;DHT22;38606;52.986;6.980;2022-11-20T10:44:20;3.00;99.90
52709;DHT22;38606;52.986;6.980;2022-11-20T10:47:16;3.10;99.90
52709;DHT22;38606;52.986;6.980;2022-11-20T10:49:50;2.90;99.90
52709;DHT22;38606;52.986;6.980;2022-11-20T10:55:29;2.80;99.90
52709;DHT22;38606;52.986;6.980;2022-11-20T10:58:13;2.90;99.90
52709;DHT22;38606;52.986;6.980;2022-11-20T11:00:39;3.20;99.90
52709;DHT22;38606;52.986;6.980;2022-11-20T11:03:29;3.20;99.90
52709;DHT22;38606;52.986;6.980;2022-11-20T11:06:14;3.90;99.90
52709;DHT22;38606;52.986;6.980;2022-11-20T11:08:43;3.30;99.90
52709;DHT22;38606;52.986;6.980;2022-11-20T11:11:22;3.20;99.90
52709;DHT22;38606;52.986;6.980;2022-11-20T11:13:49;3.40;99.90
52709;DHT22;38606;52.986;6.980;2022-11-20T11:16:27;3.10;99.90
52709;DHT22;38606;52.986;6.980;2022-11-20T11:19:04;4.60;99.90
52709;DHT22;38606;52.986;6.980;2022-11-20T11:21:30;3.50;99.90
52709;DHT22;38606;52.986;6.980;2022-11-20T11:24:01;3.80;99.90
52709;DHT22;38606;52.986;6.980;2022-11-20T11:26:27;3.40;99.90
52709;DHT22;38606;52.986;6.980;2022-11-20T11:29:00;4.70;99.90
52709;DHT22;38606;52.986;6.980;2022-11-20T11:31:29;3.60;99.90
52709;DHT22;38606;52.986;6.980;2022-11-20T11:34:12;3.60;99.90
52709;DHT22;38606;52.986;6.980;2022-11-20T11:36:38;3.50;99.90
52709;DHT22;38606;52.986;6.980;2022-11-20T11:39:06;3.70;99.90
52709;DHT22;38606;52.986;6.980;2022-11-20T11:41:36;3.70;99.90
52709;DHT22;38606;52.986;6.980;2022-11-20T11:44:19;3.60;99.90
52709;DHT22;38606;52.986;6.980;2022-11-20T11:47:05;3.70;99.90
52709;DHT22;38606;52.986;6.980;2022-11-20T11:49:34;3.60;99.90
52709;DHT22;38606;52.986;6.980;2022-11-20T11:52:15;3.70;99.90
52709;DHT22;38606;52.986;6.980;2022-11-20T11:57:39;3.50;99.90
52709;DHT22;38606;52.986;6.980;2022-11-20T12:00:21;3.60;99.90
52709;DHT22;38606;52.986;6.980;2022-11-20T12:05:23;3.40;99.90
52709;DHT22;38606;52.986;6.980;2022-11-20T12:07:58;2.00;99.90
52709;DHT22;38606;52.986;6.980;2022-11-20T12:10:44;3.50;99.90
52709;DHT22;38606;52.986;6.980;2022-11-20T12:13:44;3.60;99.90
52709;DHT22;38606;52.986;6.980;2022-11-20T12:16:13;3.70;99.90
52709;DHT22;38606;52.986;6.980;2022-11-20T12:18:41;3.50;99.90
52709;DHT22;38606;52.986;6.980;2022-11-20T12:21:31;3.50;99.90
52709;DHT22;38606;52.986;6.980;2022-11-20T12:27:21;3.50;99.90
52709;DHT22;38606;52.986;6.980;2022-11-20T12:30:10;3.60;99.90
52709;DHT22;38606;52.986;6.980;2022-11-20T12:33:02;5.80;99.90
52709;DHT22;38606;52.986;6.980;2022-11-20T12:38:15;3.50;99.90
52709;DHT22;38606;52.986;6.980;2022-11-20T12:43:42;3.50;99.90
52709;DHT22;38606;52.986;6.980;2022-11-20T12:46:47;3.40;99.90
52709;DHT22;38606;52.986;6.980;2022-11-20T12:49:35;3.50;99.90
52709;DHT22;38606;52.986;6.980;2022-11-20T12:57:24;5.20;99.90
52709;DHT22;38606;52.986;6.980;2022-11-20T13:07:53;3.80;99.90
52709;DHT22;38606;52.986;6.980;2022-11-20T13:10:41;3.80;99.90
52709;DHT22;38606;52.986;6.980;2022-11-20T13:16:22;3.70;99.90
52709;DHT22;38606;52.986;6.980;2022-11-20T13:18:49;3.70;99.90
52709;DHT22;38606;52.986;6.980;2022-11-20T13:21:21;3.80;99.90
52709;DHT22;38606;52.986;6.980;2022-11-20T13:23:48;3.70;99.90
52709;DHT22;38606;52.986;6.980;2022-11-20T13:29:12;4.60;99.90
52709;DHT22;38606;52.986;6.980;2022-11-20T13:32:28;3.60;99.90
52709;DHT22;38606;52.986;6.980;2022-11-20T13:38:46;3.40;99.90
52709;DHT22;38606;52.986;6.980;2022-11-20T13:41:33;3.80;99.90
52709;DHT22;38606;52.986;6.980;2022-11-20T13:46:43;4.60;99.90
52709;DHT22;38606;52.986;6.980;2022-11-20T13:49:17;3.80;99.90
52709;DHT22;38606;52.986;6.980;2022-11-20T13:54:40;3.80;99.90
52709;DHT22;38606;52.986;6.980;2022-11-20T14:02:37;3.60;99.90
52709;DHT22;38606;52.986;6.980;2022-11-20T14:05:04;3.50;99.90
52709;DHT22;38606;52.986;6.980;2022-11-20T14:07:42;3.70;99.90
52709;DHT22;38606;52.986;6.980;2022-11-20T14:10:21;3.80;99.90
52709;DHT22;38606;52.986;6.980;2022-11-20T14:12:47;4.30;99.90
52709;DHT22;38606;52.986;6.980;2022-11-20T14:15:34;4.00;99.90
52709;DHT22;38606;52.986;6.980;2022-11-20T14:18:15;3.70;99.90
52709;DHT22;38606;52.986;6.980;2022-11-20T14:20:44;3.30;99.90
52709;DHT22;38606;52.986;6.980;2022-11-20T14:23:10;4.70;99.90
52709;DHT22;38606;52.986;6.980;2022-11-20T14:25:37;4.80;99.90
52709;DHT22;38606;52.986;6.980;2022-11-20T14:28:11;3.50;99.90
52709;DHT22;38606;52.986;6.980;2022-11-20T14:30:47;3.80;99.90
52709;DHT22;38606;52.986;6.980;2022-11-20T14:33:14;3.30;99.90
52709;DHT22;38606;52.986;6.980;2022-11-20T14:36:00;4.60;99.90
52709;DHT22;38606;52.986;6.980;2022-11-20T14:38:28;3.40;99.90
52709;DHT22;38606;52.986;6.980;2022-11-20T14:40:54;3.40;99.90
52709;DHT22;38606;52.986;6.980;2022-11-20T14:43:25;3.20;99.90
52709;DHT22;38606;52.986;6.980;2022-11-20T14:46:07;3.80;99.90
52709;DHT22;38606;52.986;6.980;2022-11-20T14:48:42;3.10;99.90
52709;DHT22;38606;52.986;6.980;2022-11-20T14:51:43;3.00;99.90
52709;DHT22;38606;52.986;6.980;2022-11-20T14:54:20;2.90;99.90
52709;DHT22;38606;52.986;6.980;2022-11-20T14:57:30;3.00;99.90
52709;DHT22;38606;52.986;6.980;2022-11-20T15:02:45;3.30;99.90
52709;DHT22;38606;52.986;6.980;2022-11-20T15:05:11;3.70;99.90
52709;DHT22;38606;52.986;6.980;2022-11-20T15:07:43;2.90;99.90
52709;DHT22;38606;52.986;6.980;2022-11-20T15:10:12;2.90;99.90
52709;DHT22;38606;52.986;6.980;2022-11-20T15:15:23;2.50;99.90
52709;DHT22;38606;52.986;6.980;2022-11-20T15:17:50;3.00;99.90
52709;DHT22;38606;52.986;6.980;2022-11-20T15:20:16;3.10;99.90
52709;DHT22;38606;52.986;6.980;2022-11-20T15:22:42;2.60;99.90
52709;DHT22;38606;52.986;6.980;2022-11-20T15:25:17;3.70;99.90
52709;DHT22;38606;52.986;6.980;2022-11-20T15:27:44;2.50;99.90
52709;DHT22;38606;52.986;6.980;2022-11-20T15:30:18;2.70;99.90
52709;DHT22;38606;52.986;6.980;2022-11-20T15:32:45;2.50;99.90
52709;DHT22;38606;52.986;6.980;2022-11-20T15:35:12;3.00;99.90
52709;DHT22;38606;52.986;6.980;2022-11-20T15:37:38;2.50;99.90
52709;DHT22;38606;52.986;6.980;2022-11-20T15:40:05;2.50;99.90
52709;DHT22;38606;52.986;6.980;2022-11-20T15:42:32;2.50;99.90
52709;DHT22;38606;52.986;6.980;2022-11-20T15:44:57;2.40;99.90
52709;DHT22;38606;52.986;6.980;2022-11-20T15:47:28;3.20;99.90
52709;DHT22;38606;52.986;6.980;2022-11-20T15:49:55;3.60;99.90
52709;DHT22;38606;52.986;6.980;2022-11-20T15:52:21;2.90;99.90
52709;DHT22;38606;52.986;6.980;2022-11-20T15:54:47;2.30;99.90
52709;DHT22;38606;52.986;6.980;2022-11-20T15:57:13;2.30;99.90
52709;DHT22;38606;52.986;6.980;2022-11-20T15:59:39;2.40;99.90
52709;DHT22;38606;52.986;6.980;2022-11-20T16:02:12;3.60;99.90
52709;DHT22;38606;52.986;6.980;2022-11-20T16:04:38;2.30;99.90
52709;DHT22;38606;52.986;6.980;2022-11-20T16:07:04;2.10;99.90
52709;DHT22;38606;52.986;6.980;2022-11-20T16:09:30;2.30;99.90
52709;DHT22;38606;52.986;6.980;2022-11-20T16:11:56;2.20;99.90
52709;DHT22;38606;52.986;6.980;2022-11-20T16:14:25;2.30;99.90
52709;DHT22;38606;52.986;6.980;2022-11-20T16:17:09;2.30;99.90
52709;DHT22;38606;52.986;6.980;2022-11-20T16:19:34;2.40;99.90
52709;DHT22;38606;52.986;6.980;2022-11-20T16:22:00;2.10;99.90
52709;DHT22;38606;52.986;6.980;2022-11-20T16:24:26;2.50;99.90
52709;DHT22;38606;52.986;6.980;2022-11-20T16:26:55;3.30;99.90
52709;DHT22;38606;52.986;6.980;2022-11-20T16:29:24;2.10;99.90
52709;DHT22;38606;52.986;6.980;2022-11-20T16:31:50;2.40;99.90
52709;DHT22;38606;52.986;6.980;2022-11-20T16:34:16;3.20;99.90
52709;DHT22;38606;52.986;6.980;2022-11-20T16:36:43;2.30;99.90
52709;DHT22;38606;52.986;6.980;2022-11-20T16:39:10;2.20;99.90
52709;DHT22;38606;52.986;6.980;2022-11-20T16:41:37;2.00;99.90
52709;DHT22;38606;52.986;6.980;2022-11-20T16:44:07;2.30;99.90
52709;DHT22;38606;52.986;6.980;2022-11-20T16:46:33;2.30;99.90
52709;DHT22;38606;52.986;6.980;2022-11-20T16:49:01;2.20;99.90
52709;DHT22;38606;52.986;6.980;2022-11-20T16:51:29;3.30;99.90
52709;DHT22;38606;52.986;6.980;2022-11-20T16:53:56;2.10;99.90
52709;DHT22;38606;52.986;6.980;2022-11-20T16:56:25;2.10;99.90
52709;DHT22;38606;52.986;6.980;2022-11-20T16:58:55;2.10;99.90
52709;DHT22;38606;52.986;6.980;2022-11-20T17:01:22;2.10;99.90
52709;DHT22;38606;52.986;6.980;2022-11-20T17:04:02;3.80;99.90
52709;DHT22;38606;52.986;6.980;2022-11-20T17:06:34;2.20;99.90
52709;DHT22;38606;52.986;6.980;2022-11-20T17:09:01;2.10;99.90
52709;DHT22;38606;52.986;6.980;2022-11-20T17:11:27;2.00;99.90
52709;DHT22;38606;52.986;6.980;2022-11-20T17:13:54;2.20;99.90
52709;DHT22;38606;52.986;6.980;2022-11-20T17:16:22;2.90;99.90
52709;DHT22;38606;52.986;6.980;2022-11-20T17:18:48;2.10;99.90
52709;DHT22;38606;52.986;6.980;2022-11-20T17:21:15;2.20;99.90
52709;DHT22;38606;52.986;6.980;2022-11-20T17:23:42;2.20;99.90